createdAt,value
2023-03-06T00:00:34.485Z,47.13
2023-03-06T00:03:16.159Z,47.27
2023-03-06T00:05:44.024Z,47.17
2023-03-06T00:08:12.270Z,47.17
2023-03-06T00:10:40.383Z,47.02
2023-03-06T00:13:11.622Z,47.02
2023-03-06T00:15:38.939Z,47.04
2023-03-06T00:18:06.951Z,46.91
2023-03-06T00:20:35.499Z,46.93
2023-03-06T00:23:03.034Z,46.78
2023-03-06T00:25:30.387Z,46.98
2023-03-06T00:27:58.065Z,46.95
2023-03-06T00:30:25.683Z,46.74
2023-03-06T00:32:53.616Z,46.87
2023-03-06T00:35:20.975Z,46.74
2023-03-06T00:37:48.808Z,46.94
2023-03-06T00:40:20.362Z,46.86
2023-03-06T00:42:47.987Z,46.79
2023-03-06T00:45:15.653Z,46.88
2023-03-06T00:47:43.856Z,46.79
2023-03-06T00:50:11.599Z,46.82
2023-03-06T00:52:39.515Z,46.80
2023-03-06T00:55:10.205Z,46.90
2023-03-06T00:57:38.104Z,46.75
2023-03-06T01:00:07.941Z,46.75
2023-03-06T01:02:35.561Z,46.70
2023-03-06T01:05:03.068Z,46.69
2023-03-06T01:07:33.932Z,46.72
2023-03-06T01:10:01.127Z,46.72
2023-03-06T01:12:28.667Z,46.73
2023-03-06T01:14:55.924Z,46.68
2023-03-06T01:17:24.025Z,46.77
2023-03-06T01:19:51.211Z,46.69
2023-03-06T01:22:18.992Z,46.69
2023-03-06T01:24:46.243Z,46.59
2023-03-06T01:27:13.814Z,46.55
2023-03-06T01:29:41.096Z,46.69
2023-03-06T01:32:08.748Z,46.65
2023-03-06T01:34:36.062Z,46.68
2023-03-06T01:37:03.568Z,46.52
2023-03-06T01:39:31.589Z,46.64
2023-03-06T01:41:59.128Z,46.53
2023-03-06T01:44:26.539Z,46.41
2023-03-06T01:46:55.051Z,46.54
2023-03-06T01:49:30.296Z,46.58
2023-03-06T01:52:24.102Z,46.38
2023-03-06T01:55:01.784Z,46.36
2023-03-06T01:57:35.114Z,46.46
2023-03-06T02:00:08.891Z,46.35
2023-03-06T02:02:37.488Z,46.34
2023-03-06T02:05:05.957Z,46.29
2023-03-06T02:07:34.987Z,46.22
2023-03-06T02:10:02.433Z,46.28
2023-03-06T02:12:30.333Z,46.16
2023-03-06T02:14:58.648Z,46.21
2023-03-06T02:17:27.564Z,46.08
2023-03-06T02:20:13.353Z,46.16
2023-03-06T02:22:49.902Z,46.19
2023-03-06T02:25:32.778Z,46.10
2023-03-06T02:28:01.170Z,46.15
2023-03-06T02:30:29.909Z,46.20
2023-03-06T02:32:58.328Z,46.00
2023-03-06T02:35:31.720Z,46.00
2023-03-06T02:38:04.635Z,45.82
2023-03-06T02:40:32.130Z,45.97
2023-03-06T02:43:00.043Z,45.81
2023-03-06T02:45:33.778Z,45.97
2023-03-06T02:48:01.333Z,45.92
2023-03-06T02:50:29.075Z,45.91
2023-03-06T02:52:56.606Z,45.74
2023-03-06T02:55:23.903Z,45.47
2023-03-06T02:57:51.854Z,45.91
2023-03-06T03:00:19.716Z,45.87
2023-03-06T03:02:48.184Z,45.78
2023-03-06T03:05:15.689Z,45.79
2023-03-06T03:07:43.771Z,45.72
2023-03-06T03:10:12.304Z,45.74
2023-03-06T03:12:40.432Z,45.82
2023-03-06T03:15:08.855Z,45.76
2023-03-06T03:17:40.965Z,45.69
2023-03-06T03:20:12.491Z,45.59
2023-03-06T03:22:40.245Z,45.54
2023-03-06T03:25:08.619Z,45.57
2023-03-06T03:27:36.092Z,45.51
2023-03-06T03:30:04.418Z,45.67
2023-03-06T03:32:31.998Z,45.59
2023-03-06T03:34:59.433Z,45.73
2023-03-06T03:37:26.951Z,45.57
2023-03-06T03:39:54.300Z,45.45
2023-03-06T03:42:21.898Z,45.37
2023-03-06T03:44:49.902Z,45.56
2023-03-06T03:47:17.504Z,45.53
2023-03-06T03:49:44.872Z,45.49
2023-03-06T03:52:12.332Z,45.42
2023-03-06T03:54:39.570Z,45.33
2023-03-06T03:57:07.183Z,45.45
2023-03-06T03:59:34.419Z,45.32
2023-03-06T04:02:04.708Z,45.34
2023-03-06T04:04:32.170Z,45.34
2023-03-06T04:07:00.573Z,45.52
2023-03-06T04:09:27.981Z,45.36
2023-03-06T04:11:55.860Z,45.27
2023-03-06T04:14:23.212Z,45.71
2023-03-06T04:16:50.800Z,45.57
2023-03-06T04:19:18.168Z,45.51
2023-03-06T04:21:45.714Z,45.56
2023-03-06T04:24:13.147Z,45.53
2023-03-06T04:26:40.639Z,45.36
2023-03-06T04:29:08.052Z,45.45
2023-03-06T04:31:35.679Z,45.35
2023-03-06T04:34:02.942Z,45.38
2023-03-06T04:36:32.911Z,45.44
2023-03-06T04:39:01.115Z,45.37
2023-03-06T04:41:28.940Z,45.28
2023-03-06T04:43:56.374Z,45.25
2023-03-06T04:46:23.904Z,45.07
2023-03-06T04:48:51.223Z,45.13
2023-03-06T04:51:18.794Z,45.30
2023-03-06T04:53:46.925Z,45.21
2023-03-06T04:56:14.446Z,45.14
2023-03-06T04:58:43.387Z,45.18
2023-03-06T05:01:12.035Z,45.05
2023-03-06T05:03:39.321Z,45.04
2023-03-06T05:06:07.198Z,45.05
2023-03-06T05:08:34.475Z,44.97
2023-03-06T05:11:02.904Z,44.92
2023-03-06T05:13:30.168Z,44.97
2023-03-06T05:16:02.887Z,44.95
2023-03-06T05:18:30.389Z,44.80
2023-03-06T05:20:59.900Z,44.91
2023-03-06T05:23:28.729Z,44.88
2023-03-06T05:25:56.963Z,44.68
2023-03-06T05:28:25.897Z,44.83
2023-03-06T05:30:53.437Z,44.84
2023-03-06T05:33:20.876Z,44.68
2023-03-06T05:35:49.032Z,44.69
2023-03-06T05:38:17.136Z,44.73
2023-03-06T05:40:45.457Z,44.82
2023-03-06T05:43:13.016Z,44.84
2023-03-06T05:45:40.979Z,44.77
2023-03-06T05:48:13.542Z,44.53
2023-03-06T05:50:41.094Z,44.93
2023-03-06T05:53:08.408Z,45.25
2023-03-06T05:55:36.715Z,45.42
2023-03-06T05:58:04.142Z,45.80
2023-03-06T06:00:31.765Z,45.66
2023-03-06T06:03:01.279Z,45.75
2023-03-06T06:05:29.441Z,46.01
2023-03-06T06:07:56.751Z,46.27
2023-03-06T06:10:24.319Z,46.58
2023-03-06T06:12:51.604Z,46.69
2023-03-06T06:15:19.111Z,46.72
2023-03-06T06:17:46.869Z,46.91
2023-03-06T06:20:14.824Z,47.05
2023-03-06T06:22:42.272Z,47.16
2023-03-06T06:25:10.108Z,47.15
2023-03-06T06:27:37.395Z,47.26
2023-03-06T06:30:06.591Z,47.20
2023-03-06T06:32:34.525Z,47.43
2023-03-06T06:35:02.153Z,47.55
2023-03-06T06:37:29.636Z,47.71
2023-03-06T06:39:57.357Z,47.62
2023-03-06T06:42:39.013Z,47.53
2023-03-06T06:45:11.245Z,47.61
2023-03-06T06:47:41.283Z,47.54
2023-03-06T06:50:12.918Z,47.57
2023-03-06T06:52:40.444Z,47.46
2023-03-06T06:55:08.764Z,47.41
2023-03-06T06:57:36.076Z,47.47
2023-03-06T07:00:05.432Z,47.54
2023-03-06T07:02:32.889Z,47.80
2023-03-06T07:05:04.713Z,47.72
2023-03-06T07:07:37.551Z,47.74
2023-03-06T07:10:07.748Z,47.60
2023-03-06T07:12:35.288Z,47.68
2023-03-06T07:15:04.800Z,47.80
2023-03-06T07:17:32.018Z,47.73
2023-03-06T07:19:59.932Z,47.71
2023-03-06T07:22:28.147Z,47.59
2023-03-06T07:24:56.628Z,47.55
2023-03-06T07:27:26.062Z,47.47
2023-03-06T07:29:53.585Z,47.58
2023-03-06T07:32:21.064Z,47.41
2023-03-06T07:34:48.996Z,47.34
2023-03-06T07:37:16.436Z,47.32
2023-03-06T07:39:44.664Z,46.98
2023-03-06T07:42:13.936Z,47.19
2023-03-06T07:44:41.519Z,47.28
2023-03-06T07:47:08.880Z,47.31
2023-03-06T07:49:37.300Z,47.13
2023-03-06T07:52:04.811Z,47.30
2023-03-06T07:54:32.657Z,47.04
2023-03-06T07:56:59.990Z,47.01
2023-03-06T07:59:28.855Z,46.96
2023-03-06T08:01:56.932Z,47.02
2023-03-06T08:04:24.440Z,46.85
2023-03-06T08:06:53.460Z,46.94
2023-03-06T08:09:20.964Z,46.92
2023-03-06T08:11:49.364Z,46.85
2023-03-06T08:14:16.913Z,46.87
2023-03-06T08:16:44.254Z,46.82
2023-03-06T08:19:11.833Z,46.79
2023-03-06T08:21:39.045Z,46.70
2023-03-06T08:24:07.566Z,46.70
2023-03-06T08:26:35.732Z,46.57
2023-03-06T08:29:03.731Z,46.65
2023-03-06T08:31:36.226Z,46.57
2023-03-06T08:34:12.529Z,46.36
2023-03-06T08:36:40.091Z,46.42
2023-03-06T08:39:08.674Z,46.40
2023-03-06T08:41:37.173Z,46.38
2023-03-06T08:44:05.412Z,46.34
2023-03-06T08:46:33.987Z,46.28
2023-03-06T08:49:01.902Z,46.21
2023-03-06T08:51:29.212Z,46.25
2023-03-06T08:53:57.978Z,46.14
2023-03-06T08:56:33.652Z,46.09
2023-03-06T08:59:03.839Z,46.09
2023-03-06T09:01:34.669Z,46.00
2023-03-06T09:04:06.435Z,45.93
2023-03-06T09:06:37.384Z,46.00
2023-03-06T09:09:05.919Z,46.05
2023-03-06T09:11:33.725Z,45.89
2023-03-06T09:14:01.496Z,45.77
2023-03-06T09:16:28.915Z,45.81
2023-03-06T09:18:57.782Z,45.77
2023-03-06T09:21:27.209Z,45.52
2023-03-06T09:23:55.242Z,45.67
2023-03-06T09:26:27.996Z,45.64
2023-03-06T09:29:00.568Z,45.43
2023-03-06T09:31:28.310Z,45.58
2023-03-06T09:33:56.724Z,45.46
2023-03-06T09:36:24.028Z,45.49
2023-03-06T09:38:51.570Z,45.48
2023-03-06T09:41:33.348Z,45.46
2023-03-06T09:44:08.594Z,45.43
2023-03-06T09:46:45.411Z,45.22
2023-03-06T09:49:45.486Z,45.25
2023-03-06T09:52:40.714Z,45.17
2023-03-06T09:55:13.331Z,45.16
2023-03-06T09:58:11.338Z,45.19
2023-03-06T10:00:44.323Z,45.22
2023-03-06T10:03:31.019Z,45.14
2023-03-06T10:06:11.371Z,45.00
2023-03-06T10:08:49.960Z,45.18
2023-03-06T10:11:24.851Z,45.06
2023-03-06T10:14:12.107Z,45.04
2023-03-06T10:16:40.243Z,45.01
2023-03-06T10:19:14.370Z,45.06
2023-03-06T10:22:06.132Z,45.00
2023-03-06T10:24:46.359Z,44.83
2023-03-06T10:27:45.810Z,44.84
2023-03-06T10:30:33.859Z,44.78
2023-03-06T10:33:17.367Z,44.79
2023-03-06T10:35:48.205Z,44.75
2023-03-06T10:38:24.788Z,44.78
2023-03-06T10:41:01.215Z,44.77
2023-03-06T10:43:28.715Z,44.70
2023-03-06T10:45:56.089Z,44.48
2023-03-06T10:48:26.620Z,44.80
2023-03-06T10:51:22.250Z,44.58
2023-03-06T10:53:57.213Z,44.61
2023-03-06T10:56:37.039Z,44.57
2023-03-06T10:59:07.239Z,44.54
2023-03-06T11:01:36.036Z,44.52
2023-03-06T11:04:22.678Z,44.49
2023-03-06T11:07:19.820Z,44.33
2023-03-06T11:10:15.645Z,44.36
2023-03-06T11:12:43.774Z,44.41
2023-03-06T11:15:23.341Z,44.42
2023-03-06T11:17:57.569Z,44.45
2023-03-06T11:20:55.600Z,44.63
2023-03-06T11:23:37.081Z,44.44
2023-03-06T11:26:04.935Z,44.24
2023-03-06T11:28:40.793Z,44.50
2023-03-06T11:31:14.072Z,44.52
2023-03-06T11:33:50.188Z,44.47
2023-03-06T11:36:43.876Z,44.43
2023-03-06T11:39:37.074Z,44.42
2023-03-06T11:42:43.121Z,44.45
2023-03-06T11:45:37.141Z,44.40
2023-03-06T11:48:38.088Z,44.38
2023-03-06T11:51:11.211Z,44.38
2023-03-06T11:53:40.118Z,44.44
2023-03-06T11:56:19.324Z,44.45
2023-03-06T11:59:30.193Z,44.37
2023-03-06T12:02:11.975Z,44.35
2023-03-06T12:05:07.328Z,44.30
2023-03-06T12:07:34.623Z,44.30
2023-03-06T12:10:20.228Z,44.37
2023-03-06T12:12:57.144Z,44.36
2023-03-06T12:15:50.310Z,44.21
2023-03-06T12:18:29.723Z,44.26
2023-03-06T12:21:07.141Z,44.31
2023-03-06T12:24:12.539Z,44.39
2023-03-06T12:27:01.686Z,44.24
2023-03-06T12:29:53.621Z,44.31
2023-03-06T12:32:59.683Z,44.39
2023-03-06T12:35:42.207Z,44.21
2023-03-06T12:38:22.492Z,44.31
2023-03-06T12:41:22.822Z,44.26
2023-03-06T12:43:58.592Z,44.28
2023-03-06T12:46:27.998Z,44.19
2023-03-06T12:49:05.364Z,44.31
2023-03-06T12:51:34.375Z,44.36
2023-03-06T12:54:03.244Z,44.25
2023-03-06T12:56:32.269Z,44.25
2023-03-06T12:59:03.394Z,44.20
2023-03-06T13:02:13.254Z,44.23
2023-03-06T13:05:06.243Z,44.07
2023-03-06T13:07:49.083Z,44.07
2023-03-06T13:10:33.688Z,44.21
2023-03-06T13:13:26.525Z,44.29
2023-03-06T13:16:18.639Z,44.07
2023-03-06T13:18:51.349Z,43.99
2023-03-06T13:21:44.303Z,44.07
2023-03-06T13:24:23.529Z,44.02
2023-03-06T13:26:58.388Z,43.92
2023-03-06T13:29:37.732Z,43.81
2023-03-06T13:32:17.026Z,44.15
2023-03-06T13:34:49.958Z,43.93
2023-03-06T13:37:17.475Z,43.88
2023-03-06T13:39:59.905Z,43.92
2023-03-06T13:42:30.529Z,43.89
2023-03-06T13:45:08.903Z,43.96
2023-03-06T13:50:44.399Z,43.91
2023-03-06T13:53:40.734Z,43.83
2023-03-06T13:56:25.140Z,43.84
2023-03-06T13:59:29.681Z,43.93
2023-03-06T14:02:22.609Z,43.84
2023-03-06T14:04:57.901Z,43.89
2023-03-06T14:07:30.904Z,43.70
2023-03-06T14:10:01.144Z,43.77
2023-03-06T14:12:34.024Z,43.85
2023-03-06T14:15:15.760Z,43.70
2023-03-06T14:18:01.934Z,43.83
2023-03-06T14:20:43.861Z,43.74
2023-03-06T14:23:23.379Z,43.80
2023-03-06T14:26:00.784Z,43.61
2023-03-06T14:28:30.822Z,43.77
2023-03-06T14:31:00.359Z,43.57
2023-03-06T14:33:50.308Z,43.24
2023-03-06T14:36:20.823Z,43.44
2023-03-06T14:38:58.189Z,43.59
2023-03-06T14:41:34.542Z,43.41
2023-03-06T14:44:23.147Z,43.17
2023-03-06T14:46:51.986Z,43.58
2023-03-06T14:49:21.710Z,43.40
2023-03-06T14:51:51.976Z,43.52
2023-03-06T14:54:23.417Z,43.49
2023-03-06T14:56:53.577Z,43.26
2023-03-06T14:59:26.537Z,43.54
2023-03-06T15:02:01.046Z,43.54
2023-03-06T15:04:44.387Z,43.45
2023-03-06T15:07:17.643Z,43.46
2023-03-06T15:09:49.240Z,43.63
2023-03-06T15:12:20.865Z,43.45
2023-03-06T15:14:59.012Z,43.85
2023-03-06T15:17:30.750Z,43.66
2023-03-06T15:20:00.266Z,43.74
2023-03-06T15:22:43.441Z,43.68
2023-03-06T15:25:27.282Z,43.71
2023-03-06T15:28:00.557Z,43.78
2023-03-06T15:30:34.461Z,43.67
2023-03-06T15:33:22.043Z,43.66
2023-03-06T15:36:00.788Z,43.62
2023-03-06T15:38:42.351Z,43.83
2023-03-06T15:41:32.374Z,43.86
2023-03-06T15:44:01.580Z,44.09
2023-03-06T15:46:29.747Z,44.04
2023-03-06T15:49:01.111Z,44.00
2023-03-06T15:51:29.881Z,44.29
2023-03-06T15:54:09.866Z,44.30
2023-03-06T15:56:41.747Z,44.47
2023-03-06T15:59:21.787Z,44.40
2023-03-06T16:01:50.556Z,44.43
2023-03-06T16:04:19.796Z,44.56
2023-03-06T16:06:47.162Z,44.74
2023-03-06T16:09:14.713Z,44.75
2023-03-06T16:11:44.773Z,44.78
2023-03-06T16:14:21.303Z,44.67
2023-03-06T16:16:49.918Z,44.78
2023-03-06T16:19:28.201Z,44.66
2023-03-06T16:21:57.366Z,44.89
2023-03-06T16:24:26.251Z,44.92
2023-03-06T16:26:54.880Z,44.86
2023-03-06T16:29:25.887Z,44.96
2023-03-06T16:31:55.453Z,45.12
2023-03-06T16:34:23.516Z,45.07
2023-03-06T16:36:51.469Z,45.06
2023-03-06T16:39:21.762Z,45.26
2023-03-06T16:41:50.482Z,45.01
2023-03-06T16:44:18.821Z,45.00
2023-03-06T16:46:48.763Z,45.24
2023-03-06T16:49:23.829Z,44.94
2023-03-06T16:51:51.770Z,45.21
2023-03-06T16:54:20.235Z,45.03
2023-03-06T16:56:47.519Z,45.05
2023-03-06T16:59:15.059Z,45.20
2023-03-06T17:01:43.368Z,45.11
2023-03-06T17:04:11.321Z,44.99
2023-03-06T17:06:39.667Z,45.02
2023-03-06T17:09:07.559Z,45.04
2023-03-06T17:11:38.513Z,44.96
2023-03-06T17:14:06.932Z,45.25
2023-03-06T17:16:36.469Z,45.01
2023-03-06T17:19:05.471Z,45.03
2023-03-06T17:21:35.344Z,44.97
2023-03-06T17:24:03.734Z,44.82
2023-03-06T17:26:32.726Z,44.88
2023-03-06T17:29:00.303Z,44.88
2023-03-06T17:31:28.713Z,45.11
2023-03-06T17:34:00.483Z,44.93
2023-03-06T17:36:29.016Z,44.89
2023-03-06T17:38:58.638Z,44.60
2023-03-06T17:41:26.325Z,44.78
2023-03-06T17:43:58.181Z,44.83
2023-03-06T17:46:25.948Z,44.81
2023-03-06T17:48:54.708Z,44.86
2023-03-06T17:51:22.064Z,44.76
2023-03-06T17:53:49.711Z,44.74
2023-03-06T17:56:17.067Z,44.71
2023-03-06T17:58:44.966Z,44.84
2023-03-06T18:01:20.908Z,44.74
2023-03-06T18:03:50.249Z,44.83
2023-03-06T18:06:18.756Z,44.80
2023-03-06T18:08:46.826Z,44.71
2023-03-06T18:11:14.730Z,44.68
2023-03-06T18:13:44.908Z,44.71
2023-03-06T18:16:14.510Z,44.72
2023-03-06T18:18:42.280Z,44.80
2023-03-06T18:21:12.704Z,44.64
2023-03-06T18:23:41.609Z,44.75
2023-03-06T18:26:18.601Z,44.68
2023-03-06T18:28:48.680Z,44.61
2023-03-06T18:31:17.137Z,44.79
2023-03-06T18:33:47.629Z,44.64
2023-03-06T18:36:15.881Z,44.63
2023-03-06T18:38:45.441Z,44.47
2023-03-06T18:41:13.513Z,44.61
2023-03-06T18:43:42.331Z,44.56
2023-03-06T18:46:10.090Z,44.50
2023-03-06T18:48:37.976Z,44.53
2023-03-06T18:51:10.404Z,44.47
2023-03-06T18:53:39.945Z,44.62
2023-03-06T18:56:10.550Z,44.50
2023-03-06T18:58:37.998Z,44.47
2023-03-06T19:01:07.255Z,44.47
2023-03-06T19:03:35.258Z,44.51
2023-03-06T19:06:09.270Z,44.48
2023-03-06T19:08:38.637Z,44.51
2023-03-06T19:11:08.453Z,44.57
2023-03-06T19:13:36.902Z,44.60
2023-03-06T19:16:05.444Z,44.51
2023-03-06T19:18:33.421Z,44.63
2023-03-06T19:21:11.765Z,44.37
2023-03-06T19:23:39.545Z,44.48
2023-03-06T19:26:07.682Z,44.41
2023-03-06T19:28:37.571Z,44.56
2023-03-06T19:31:13.381Z,44.54
2023-03-06T19:33:42.485Z,44.40
2023-03-06T19:36:12.287Z,44.43
2023-03-06T19:38:40.524Z,44.52
2023-03-06T19:41:13.590Z,44.36
2023-03-06T19:43:42.655Z,44.38
2023-03-06T19:46:13.901Z,44.38
2023-03-06T19:48:42.294Z,44.42
2023-03-06T19:51:10.712Z,44.40
2023-03-06T19:53:39.811Z,44.31
2023-03-06T19:56:08.556Z,44.31
2023-03-06T19:58:36.033Z,44.38
2023-03-06T20:01:09.935Z,44.41
2023-03-06T20:03:37.448Z,44.33
2023-03-06T20:06:09.163Z,44.31
2023-03-06T20:08:36.783Z,44.44
2023-03-06T20:11:04.598Z,44.45
2023-03-06T20:13:31.896Z,44.38
2023-03-06T20:16:02.879Z,44.29
2023-03-06T20:18:30.205Z,44.46
2023-03-06T20:21:02.276Z,44.34
2023-03-06T20:23:30.258Z,44.24
2023-03-06T20:26:09.658Z,44.44
2023-03-06T20:28:39.318Z,44.33
2023-03-06T20:31:11.642Z,44.28
2023-03-06T20:33:39.633Z,44.31
2023-03-06T20:36:16.008Z,44.37
2023-03-06T20:38:44.229Z,44.37
2023-03-06T20:41:20.397Z,44.10
2023-03-06T20:43:48.249Z,44.26
2023-03-06T20:46:16.374Z,44.34
2023-03-06T20:48:44.145Z,44.33
2023-03-06T20:51:14.616Z,44.37
2023-03-06T20:53:41.854Z,44.43
2023-03-06T20:56:13.827Z,44.40
2023-03-06T20:58:41.207Z,44.42
2023-03-06T21:01:08.907Z,44.53
2023-03-06T21:03:36.793Z,44.48
2023-03-06T21:06:05.653Z,44.41
2023-03-06T21:08:32.971Z,44.42
2023-03-06T21:11:00.483Z,44.49
2023-03-06T21:13:28.162Z,44.53
2023-03-06T21:15:55.735Z,44.56
2023-03-06T21:18:23.252Z,44.53
2023-03-06T21:20:50.914Z,44.59
2023-03-06T21:23:18.175Z,44.59
2023-03-06T21:25:50.245Z,44.43
2023-03-06T21:28:18.343Z,44.62
2023-03-06T21:30:46.219Z,44.56
2023-03-06T21:33:16.064Z,44.57
2023-03-06T21:35:45.424Z,44.84
2023-03-06T21:38:14.126Z,44.87
2023-03-06T21:40:42.647Z,44.76
2023-03-06T21:43:10.374Z,44.98
2023-03-06T21:45:38.088Z,44.87
2023-03-06T21:48:05.616Z,44.98
2023-03-06T21:50:33.547Z,45.09
2023-03-06T21:53:00.937Z,45.05
2023-03-06T21:55:28.541Z,45.03
2023-03-06T21:57:56.363Z,45.08
2023-03-06T22:00:25.658Z,45.17
2023-03-06T22:02:53.090Z,45.24
2023-03-06T22:05:20.694Z,45.17
2023-03-06T22:07:49.573Z,45.12
2023-03-06T22:10:17.273Z,45.17
2023-03-06T22:12:45.806Z,45.34
2023-03-06T22:15:13.321Z,45.22
2023-03-06T22:17:41.552Z,45.17
2023-03-06T22:20:09.948Z,45.30
2023-03-06T22:22:37.268Z,45.22
2023-03-06T22:25:05.149Z,45.10
2023-03-06T22:27:32.745Z,45.24
2023-03-06T22:30:00.723Z,45.15
2023-03-06T22:32:28.050Z,44.98
2023-03-06T22:34:55.639Z,45.15
2023-03-06T22:37:22.857Z,45.15
2023-03-06T22:39:50.362Z,45.22
2023-03-06T22:42:17.562Z,45.10
2023-03-06T22:44:45.199Z,45.15
2023-03-06T22:47:12.564Z,45.17
2023-03-06T22:49:40.208Z,45.14
2023-03-06T22:52:07.437Z,45.04
2023-03-06T22:54:34.925Z,45.04
2023-03-06T22:57:02.155Z,45.03
2023-03-06T22:59:29.707Z,45.05
2023-03-06T23:01:58.498Z,45.10
2023-03-06T23:04:26.066Z,44.95
2023-03-06T23:06:53.312Z,45.06
2023-03-06T23:09:22.346Z,45.11
2023-03-06T23:11:50.234Z,45.04
2023-03-06T23:14:19.503Z,45.14
2023-03-06T23:16:46.816Z,45.20
2023-03-06T23:19:14.379Z,45.16
2023-03-06T23:21:41.811Z,45.03
2023-03-06T23:24:09.500Z,45.23
2023-03-06T23:26:37.059Z,45.18
2023-03-06T23:29:04.591Z,45.12
2023-03-06T23:31:32.209Z,45.21
2023-03-06T23:34:02.141Z,45.15
2023-03-06T23:36:30.413Z,45.01
2023-03-06T23:38:58.713Z,45.23
2023-03-06T23:41:26.085Z,45.04
2023-03-06T23:43:55.278Z,45.04
2023-03-06T23:46:22.730Z,44.96
2023-03-06T23:48:50.535Z,45.07
2023-03-06T23:51:21.696Z,45.03
2023-03-06T23:53:55.704Z,45.00
2023-03-06T23:56:24.596Z,45.00
2023-03-06T23:58:52.405Z,44.98
